createdAt,value
2018-12-01T04:10:18.613Z,99.90
2018-12-01T06:02:57.988Z,99.90
2018-12-01T11:19:11.491Z,85.60
2018-12-01T11:29:12.738Z,91.20
2018-12-01T11:39:14.001Z,98.50
2018-12-01T11:49:15.299Z,95.90
2018-12-01T11:59:20.944Z,93.10
2018-12-01T12:19:29.980Z,86.20
2018-12-01T12:29:31.248Z,90.40
2018-12-01T12:39:32.518Z,92.70
2018-12-01T12:49:33.786Z,99.90
2018-12-01T12:59:35.837Z,99.90
2018-12-01T13:09:37.133Z,99.90
2018-12-01T13:19:38.418Z,99.00
2018-12-01T13:29:39.692Z,98.10
2018-12-01T13:39:41.389Z,99.90
2018-12-01T13:49:46.848Z,99.90
2018-12-01T13:59:48.117Z,99.90
2018-12-01T14:09:52.869Z,99.90
2018-12-01T14:19:54.910Z,99.90
2018-12-01T14:29:56.202Z,99.90
2018-12-01T14:39:57.598Z,99.90
2018-12-01T14:49:58.883Z,99.90
2018-12-01T15:00:00.339Z,99.90
2018-12-01T15:10:01.646Z,99.90
2018-12-01T15:20:02.961Z,99.90
2018-12-01T15:30:07.100Z,99.90
2018-12-01T17:21:20.339Z,99.90
2018-12-01T17:31:21.613Z,99.90
2018-12-01T17:41:22.877Z,99.90
2018-12-01T17:51:24.169Z,99.90
2018-12-01T18:01:25.450Z,99.90
2018-12-01T18:11:29.639Z,99.90
2018-12-01T18:41:44.241Z,99.90
2018-12-01T19:01:56.687Z,99.90
2018-12-01T19:11:57.989Z,99.90
2018-12-01T19:21:59.299Z,99.90
2018-12-01T19:32:00.585Z,99.90
2018-12-01T19:42:01.937Z,99.90
2018-12-01T19:52:03.223Z,99.90
2018-12-01T20:02:04.610Z,99.90
2018-12-01T20:12:05.922Z,99.90
2018-12-01T20:22:07.335Z,99.90
2018-12-01T20:32:09.399Z,99.90
2018-12-01T20:42:10.790Z,99.90
2018-12-01T20:52:12.117Z,99.90
2018-12-01T21:02:13.401Z,99.90
2018-12-01T21:12:14.697Z,99.90
2018-12-01T21:22:16.015Z,99.90
2018-12-01T21:32:17.291Z,99.90
2018-12-01T21:42:18.633Z,99.90
2018-12-01T21:52:20.742Z,99.90
2018-12-01T22:02:22.073Z,99.90
2018-12-01T22:12:23.375Z,99.90
2018-12-01T22:22:24.738Z,99.90
2018-12-01T22:32:26.146Z,99.90
2018-12-01T22:42:27.551Z,99.90
2018-12-01T22:52:29.013Z,99.90
2018-12-01T23:12:37.218Z,99.90
2018-12-01T23:22:38.478Z,99.90
2018-12-01T23:32:39.732Z,99.90
2018-12-01T23:42:40.979Z,99.90
2018-12-01T23:52:42.249Z,99.90
